Aviation Digital Data Service (ADDS)

Output produced by METARs form (0339 UTC 26 June 2019)
found at http://www.aviationweather.gov/metar/data/
 
Forecast for: UGSB (BATUMI , GE)
Text: TAF UGSB 252300Z 2600/2624 14007KT 9999 FEW025 SCT100 TX28/2611Z TN22/2601Z
Forecast period: 0000 to 0500 UTC 26 June 2019
Forecast type: FROM: standard forecast or significant change
Winds: from the SE (140 degrees) at 8 MPH (7 knots; 3.6 m/s)
Visibility: 6 or more miles 10+ km)
Ceiling: at least 12,000 feet AGL
Clouds: few clouds at 2500 feet AGL
scattered clouds at 10000 feet AGL
Weather: no significant weather forecast for this period
Text: PROB40
Forecast period: 0000 to 0600 UTC 26 June 2019
Forecast type: TEMPORARY: The following changes expected for less than half the time period
Visibility: missing
Ceiling: 2700 feet AGL
Clouds: scattered clouds at 1700 feet AGL
broken clouds at 2700 feet AGL
Weather: TSRA  (rain associated with thunderstorm(s))
Text: TEMPO 2600/2606 TSRA SCT017 BKN027CB
Forecast period: 0500 UTC 26 June 2019 to 0000 UTC 27 June 2019
Forecast type: BECOMING: Conditions expected to become as follows by 0600 UTC 26 June 2019
Winds: from the W (260 degrees) at 10 MPH (9 knots; 4.6 m/s)
Visibility: 6 or more miles 10+ km)
Ceiling: at least 12,000 feet AGL
Clouds: few clouds at 2500 feet AGL
scattered clouds at 10000 feet AGL
Weather: no significant weather forecast for this period